sensor_id;sensor_type;location;lat;lon;timestamp;temperature;humidity
16505;HTU21D;8365;51.030;4.696;2022-12-07T00:02:01;6.68;118.99
16505;HTU21D;8365;51.030;4.696;2022-12-07T00:04:32;6.57;118.99
16505;HTU21D;8365;51.030;4.696;2022-12-07T00:07:02;6.43;118.99
16505;HTU21D;8365;51.030;4.696;2022-12-07T00:09:34;6.49;118.99
16505;HTU21D;8365;51.030;4.696;2022-12-07T00:12:04;6.44;118.99
16505;HTU21D;8365;51.030;4.696;2022-12-07T00:14:35;6.21;118.99
16505;HTU21D;8365;51.030;4.696;2022-12-07T00:17:05;6.21;118.99
16505;HTU21D;8365;51.030;4.696;2022-12-07T00:19:36;6.27;118.99
16505;HTU21D;8365;51.030;4.696;2022-12-07T00:22:06;6.16;118.99
16505;HTU21D;8365;51.030;4.696;2022-12-07T00:24:39;6.08;118.99
16505;HTU21D;8365;51.030;4.696;2022-12-07T00:27:09;6.11;118.99
16505;HTU21D;8365;51.030;4.696;2022-12-07T00:29:40;6.11;118.99
16505;HTU21D;8365;51.030;4.696;2022-12-07T00:32:10;5.99;118.99
16505;HTU21D;8365;51.030;4.696;2022-12-07T00:34:41;6.17;118.99
16505;HTU21D;8365;51.030;4.696;2022-12-07T00:37:11;6.17;118.99
16505;HTU21D;8365;51.030;4.696;2022-12-07T00:39:45;6.26;118.99
16505;HTU21D;8365;51.030;4.696;2022-12-07T00:42:16;6.36;118.99
16505;HTU21D;8365;51.030;4.696;2022-12-07T00:44:46;6.46;118.99
16505;HTU21D;8365;51.030;4.696;2022-12-07T00:47:17;6.41;118.99
16505;HTU21D;8365;51.030;4.696;2022-12-07T00:49:47;6.37;118.99
16505;HTU21D;8365;51.030;4.696;2022-12-07T00:52:17;6.33;118.99
16505;HTU21D;8365;51.030;4.696;2022-12-07T00:54:48;5.96;118.99
16505;HTU21D;8365;51.030;4.696;2022-12-07T00:57:18;5.57;118.99
16505;HTU21D;8365;51.030;4.696;2022-12-07T00:59:49;5.51;118.99
16505;HTU21D;8365;51.030;4.696;2022-12-07T01:02:19;5.45;118.99
16505;HTU21D;8365;51.030;4.696;2022-12-07T01:04:49;5.50;118.99
16505;HTU21D;8365;51.030;4.696;2022-12-07T01:07:20;5.74;118.99
16505;HTU21D;8365;51.030;4.696;2022-12-07T01:09:50;5.97;118.99
16505;HTU21D;8365;51.030;4.696;2022-12-07T01:12:21;6.14;118.99
16505;HTU21D;8365;51.030;4.696;2022-12-07T01:14:51;6.35;118.99
16505;HTU21D;8365;51.030;4.696;2022-12-07T01:17:22;6.29;118.99
16505;HTU21D;8365;51.030;4.696;2022-12-07T01:19:52;6.37;118.99
16505;HTU21D;8365;51.030;4.696;2022-12-07T01:22:22;6.48;118.99
16505;HTU21D;8365;51.030;4.696;2022-12-07T01:24:58;6.30;118.99
16505;HTU21D;8365;51.030;4.696;2022-12-07T01:27:28;6.06;118.99
16505;HTU21D;8365;51.030;4.696;2022-12-07T01:29:59;5.94;118.99
16505;HTU21D;8365;51.030;4.696;2022-12-07T01:32:29;6.13;118.99
16505;HTU21D;8365;51.030;4.696;2022-12-07T01:35:00;6.27;118.99
16505;HTU21D;8365;51.030;4.696;2022-12-07T01:37:35;6.13;118.99
16505;HTU21D;8365;51.030;4.696;2022-12-07T01:40:07;6.21;118.99
16505;HTU21D;8365;51.030;4.696;2022-12-07T01:42:38;6.40;118.99
16505;HTU21D;8365;51.030;4.696;2022-12-07T01:47:53;5.98;118.99
16505;HTU21D;8365;51.030;4.696;2022-12-07T01:50:26;5.72;118.99
16505;HTU21D;8365;51.030;4.696;2022-12-07T01:52:58;5.69;118.99
16505;HTU21D;8365;51.030;4.696;2022-12-07T01:55:30;5.42;118.99
16505;HTU21D;8365;51.030;4.696;2022-12-07T01:58:01;5.38;118.99
16505;HTU21D;8365;51.030;4.696;2022-12-07T02:00:31;5.42;118.99
16505;HTU21D;8365;51.030;4.696;2022-12-07T02:03:16;5.69;118.99
16505;HTU21D;8365;51.030;4.696;2022-12-07T02:05:49;5.68;118.99
16505;HTU21D;8365;51.030;4.696;2022-12-07T02:08:20;5.42;118.99
16505;HTU21D;8365;51.030;4.696;2022-12-07T02:10:51;5.37;118.99
16505;HTU21D;8365;51.030;4.696;2022-12-07T02:13:24;5.52;118.99
16505;HTU21D;8365;51.030;4.696;2022-12-07T02:18:48;5.22;118.99
16505;HTU21D;8365;51.030;4.696;2022-12-07T02:29:54;5.25;118.99
16505;HTU21D;8365;51.030;4.696;2022-12-07T02:35:45;5.28;118.99
16505;HTU21D;8365;51.030;4.696;2022-12-07T02:41:02;5.35;118.99
16505;HTU21D;8365;51.030;4.696;2022-12-07T02:43:39;5.45;118.99
16505;HTU21D;8365;51.030;4.696;2022-12-07T02:46:15;5.37;118.99
16505;HTU21D;8365;51.030;4.696;2022-12-07T02:48:47;5.41;118.99
16505;HTU21D;8365;51.030;4.696;2022-12-07T02:51:18;5.40;118.99
16505;HTU21D;8365;51.030;4.696;2022-12-07T02:53:49;5.65;118.99
16505;HTU21D;8365;51.030;4.696;2022-12-07T02:59:25;5.75;118.99
16505;HTU21D;8365;51.030;4.696;2022-12-07T03:02:31;5.84;118.99
16505;HTU21D;8365;51.030;4.696;2022-12-07T03:05:17;5.82;118.99
16505;HTU21D;8365;51.030;4.696;2022-12-07T03:16:18;5.86;118.99
16505;HTU21D;8365;51.030;4.696;2022-12-07T03:18:56;5.96;118.99
16505;HTU21D;8365;51.030;4.696;2022-12-07T03:21:33;5.54;118.99
16505;HTU21D;8365;51.030;4.696;2022-12-07T03:24:09;5.74;118.99
16505;HTU21D;8365;51.030;4.696;2022-12-07T03:26:51;6.06;118.99
16505;HTU21D;8365;51.030;4.696;2022-12-07T03:29:27;6.13;118.99
16505;HTU21D;8365;51.030;4.696;2022-12-07T03:32:06;6.30;118.99
16505;HTU21D;8365;51.030;4.696;2022-12-07T03:37:30;5.95;118.99
16505;HTU21D;8365;51.030;4.696;2022-12-07T03:40:29;6.23;118.99
16505;HTU21D;8365;51.030;4.696;2022-12-07T03:43:01;6.26;118.99
16505;HTU21D;8365;51.030;4.696;2022-12-07T03:45:42;6.19;118.99
16505;HTU21D;8365;51.030;4.696;2022-12-07T03:48:27;6.02;118.99
16505;HTU21D;8365;51.030;4.696;2022-12-07T03:51:27;5.81;118.99
16505;HTU21D;8365;51.030;4.696;2022-12-07T03:54:05;5.83;118.99
16505;HTU21D;8365;51.030;4.696;2022-12-07T03:56:37;5.95;118.99
16505;HTU21D;8365;51.030;4.696;2022-12-07T03:59:09;5.94;118.99
16505;HTU21D;8365;51.030;4.696;2022-12-07T04:01:43;5.96;118.99
16505;HTU21D;8365;51.030;4.696;2022-12-07T04:04:13;6.01;118.99
16505;HTU21D;8365;51.030;4.696;2022-12-07T04:06:44;5.93;118.99
16505;HTU21D;8365;51.030;4.696;2022-12-07T04:09:15;5.95;118.99
16505;HTU21D;8365;51.030;4.696;2022-12-07T04:11:46;5.96;118.99
16505;HTU21D;8365;51.030;4.696;2022-12-07T04:14:16;5.86;118.99
16505;HTU21D;8365;51.030;4.696;2022-12-07T04:16:52;5.80;118.99
16505;HTU21D;8365;51.030;4.696;2022-12-07T04:19:25;5.81;118.99
16505;HTU21D;8365;51.030;4.696;2022-12-07T04:21:58;5.75;118.99
16505;HTU21D;8365;51.030;4.696;2022-12-07T04:24:28;5.78;118.99
16505;HTU21D;8365;51.030;4.696;2022-12-07T04:26:59;5.74;118.99
16505;HTU21D;8365;51.030;4.696;2022-12-07T04:29:32;5.76;118.99
16505;HTU21D;8365;51.030;4.696;2022-12-07T04:32:03;5.42;118.99
16505;HTU21D;8365;51.030;4.696;2022-12-07T04:34:33;5.30;118.99
16505;HTU21D;8365;51.030;4.696;2022-12-07T04:37:04;5.38;118.99
16505;HTU21D;8365;51.030;4.696;2022-12-07T04:39:36;5.31;118.99
16505;HTU21D;8365;51.030;4.696;2022-12-07T04:42:07;5.28;118.99
16505;HTU21D;8365;51.030;4.696;2022-12-07T04:44:37;5.23;118.99
16505;HTU21D;8365;51.030;4.696;2022-12-07T04:47:07;4.97;118.99
16505;HTU21D;8365;51.030;4.696;2022-12-07T04:49:38;5.09;118.99
16505;HTU21D;8365;51.030;4.696;2022-12-07T04:52:08;5.12;118.99
16505;HTU21D;8365;51.030;4.696;2022-12-07T04:54:39;5.16;118.99
16505;HTU21D;8365;51.030;4.696;2022-12-07T04:57:09;5.04;118.99
16505;HTU21D;8365;51.030;4.696;2022-12-07T04:59:40;5.21;118.99
16505;HTU21D;8365;51.030;4.696;2022-12-07T05:02:10;5.26;118.99
16505;HTU21D;8365;51.030;4.696;2022-12-07T05:04:41;5.21;118.99
16505;HTU21D;8365;51.030;4.696;2022-12-07T05:07:11;5.40;118.99
16505;HTU21D;8365;51.030;4.696;2022-12-07T05:09:42;5.55;118.99
16505;HTU21D;8365;51.030;4.696;2022-12-07T05:12:12;5.33;118.99
16505;HTU21D;8365;51.030;4.696;2022-12-07T05:14:42;5.45;118.99
16505;HTU21D;8365;51.030;4.696;2022-12-07T05:17:13;5.49;118.99
16505;HTU21D;8365;51.030;4.696;2022-12-07T05:19:44;5.63;118.99
16505;HTU21D;8365;51.030;4.696;2022-12-07T05:22:14;5.72;118.99
16505;HTU21D;8365;51.030;4.696;2022-12-07T05:24:45;5.56;118.99
16505;HTU21D;8365;51.030;4.696;2022-12-07T05:27:16;5.74;118.99
16505;HTU21D;8365;51.030;4.696;2022-12-07T05:29:46;5.66;118.99
16505;HTU21D;8365;51.030;4.696;2022-12-07T05:32:17;5.72;118.99
16505;HTU21D;8365;51.030;4.696;2022-12-07T05:34:48;5.77;118.99
16505;HTU21D;8365;51.030;4.696;2022-12-07T05:37:20;5.68;118.99
16505;HTU21D;8365;51.030;4.696;2022-12-07T05:39:51;5.49;118.99
16505;HTU21D;8365;51.030;4.696;2022-12-07T05:42:21;5.57;118.99
16505;HTU21D;8365;51.030;4.696;2022-12-07T05:44:52;5.79;118.99
16505;HTU21D;8365;51.030;4.696;2022-12-07T05:47:22;5.79;118.99
16505;HTU21D;8365;51.030;4.696;2022-12-07T05:49:53;5.50;118.99
16505;HTU21D;8365;51.030;4.696;2022-12-07T05:52:23;5.63;118.99
16505;HTU21D;8365;51.030;4.696;2022-12-07T05:54:54;5.64;118.99
16505;HTU21D;8365;51.030;4.696;2022-12-07T05:57:25;5.65;118.99
16505;HTU21D;8365;51.030;4.696;2022-12-07T05:59:55;5.64;118.99
16505;HTU21D;8365;51.030;4.696;2022-12-07T06:02:26;5.69;118.99
16505;HTU21D;8365;51.030;4.696;2022-12-07T06:04:56;5.74;118.99
16505;HTU21D;8365;51.030;4.696;2022-12-07T06:07:27;5.70;118.99
16505;HTU21D;8365;51.030;4.696;2022-12-07T06:09:57;5.67;118.99
16505;HTU21D;8365;51.030;4.696;2022-12-07T06:12:28;5.64;118.99
16505;HTU21D;8365;51.030;4.696;2022-12-07T06:15:05;5.70;118.99
16505;HTU21D;8365;51.030;4.696;2022-12-07T06:17:36;5.79;118.99
16505;HTU21D;8365;51.030;4.696;2022-12-07T06:20:07;5.75;118.99
16505;HTU21D;8365;51.030;4.696;2022-12-07T06:22:37;5.51;118.99
16505;HTU21D;8365;51.030;4.696;2022-12-07T06:25:08;5.61;118.99
16505;HTU21D;8365;51.030;4.696;2022-12-07T06:27:40;5.65;118.99
16505;HTU21D;8365;51.030;4.696;2022-12-07T06:30:10;5.68;118.99
16505;HTU21D;8365;51.030;4.696;2022-12-07T06:32:41;5.82;118.99
16505;HTU21D;8365;51.030;4.696;2022-12-07T06:35:11;5.78;118.99
16505;HTU21D;8365;51.030;4.696;2022-12-07T06:37:42;5.91;118.99
16505;HTU21D;8365;51.030;4.696;2022-12-07T06:40:12;5.98;118.99
16505;HTU21D;8365;51.030;4.696;2022-12-07T06:42:42;6.00;118.99
16505;HTU21D;8365;51.030;4.696;2022-12-07T06:45:13;5.87;118.99
16505;HTU21D;8365;51.030;4.696;2022-12-07T06:47:43;5.90;118.99
16505;HTU21D;8365;51.030;4.696;2022-12-07T06:50:14;5.69;118.99
16505;HTU21D;8365;51.030;4.696;2022-12-07T06:52:44;5.47;118.99
16505;HTU21D;8365;51.030;4.696;2022-12-07T06:55:15;5.74;118.99
16505;HTU21D;8365;51.030;4.696;2022-12-07T06:57:45;5.59;118.99
16505;HTU21D;8365;51.030;4.696;2022-12-07T07:00:16;5.39;118.99
16505;HTU21D;8365;51.030;4.696;2022-12-07T07:02:47;5.53;118.99
16505;HTU21D;8365;51.030;4.696;2022-12-07T07:05:17;5.54;118.99
16505;HTU21D;8365;51.030;4.696;2022-12-07T07:07:51;5.57;118.99
16505;HTU21D;8365;51.030;4.696;2022-12-07T07:10:24;5.38;118.99
16505;HTU21D;8365;51.030;4.696;2022-12-07T07:12:58;5.32;118.99
16505;HTU21D;8365;51.030;4.696;2022-12-07T07:15:28;5.35;118.99
16505;HTU21D;8365;51.030;4.696;2022-12-07T07:17:59;5.21;118.99
16505;HTU21D;8365;51.030;4.696;2022-12-07T07:20:29;5.46;118.99
16505;HTU21D;8365;51.030;4.696;2022-12-07T07:23:00;5.60;118.99
16505;HTU21D;8365;51.030;4.696;2022-12-07T07:25:30;5.51;118.99
16505;HTU21D;8365;51.030;4.696;2022-12-07T07:28:01;5.57;118.99
16505;HTU21D;8365;51.030;4.696;2022-12-07T07:30:34;5.52;118.99
16505;HTU21D;8365;51.030;4.696;2022-12-07T07:33:05;5.39;118.99
16505;HTU21D;8365;51.030;4.696;2022-12-07T07:35:35;5.24;118.99
16505;HTU21D;8365;51.030;4.696;2022-12-07T07:38:06;5.28;118.99
16505;HTU21D;8365;51.030;4.696;2022-12-07T07:40:37;5.43;118.99
16505;HTU21D;8365;51.030;4.696;2022-12-07T07:43:07;5.39;118.99
16505;HTU21D;8365;51.030;4.696;2022-12-07T07:45:38;5.21;118.99
16505;HTU21D;8365;51.030;4.696;2022-12-07T07:48:10;5.25;118.99
16505;HTU21D;8365;51.030;4.696;2022-12-07T07:50:41;5.20;118.99
16505;HTU21D;8365;51.030;4.696;2022-12-07T07:53:11;5.10;118.99
16505;HTU21D;8365;51.030;4.696;2022-12-07T07:55:50;5.26;118.99
16505;HTU21D;8365;51.030;4.696;2022-12-07T07:58:21;5.19;118.99
16505;HTU21D;8365;51.030;4.696;2022-12-07T08:00:52;5.22;118.99
16505;HTU21D;8365;51.030;4.696;2022-12-07T08:03:23;5.02;118.99
16505;HTU21D;8365;51.030;4.696;2022-12-07T08:05:53;4.89;118.99
16505;HTU21D;8365;51.030;4.696;2022-12-07T08:08:24;5.16;118.99
16505;HTU21D;8365;51.030;4.696;2022-12-07T08:10:54;5.20;118.99
16505;HTU21D;8365;51.030;4.696;2022-12-07T08:13:25;5.22;118.99
16505;HTU21D;8365;51.030;4.696;2022-12-07T08:15:56;5.22;118.99
16505;HTU21D;8365;51.030;4.696;2022-12-07T08:18:26;5.46;118.99
16505;HTU21D;8365;51.030;4.696;2022-12-07T08:21:00;5.26;118.99
16505;HTU21D;8365;51.030;4.696;2022-12-07T08:23:33;5.27;118.99
16505;HTU21D;8365;51.030;4.696;2022-12-07T08:26:09;5.28;118.99
16505;HTU21D;8365;51.030;4.696;2022-12-07T08:28:40;5.18;118.99
16505;HTU21D;8365;51.030;4.696;2022-12-07T08:31:15;5.23;118.99
16505;HTU21D;8365;51.030;4.696;2022-12-07T08:33:47;5.26;118.99
16505;HTU21D;8365;51.030;4.696;2022-12-07T08:36:17;5.32;118.99
16505;HTU21D;8365;51.030;4.696;2022-12-07T08:38:48;5.30;118.99
16505;HTU21D;8365;51.030;4.696;2022-12-07T08:41:19;5.16;118.99
16505;HTU21D;8365;51.030;4.696;2022-12-07T08:43:51;5.34;118.99
16505;HTU21D;8365;51.030;4.696;2022-12-07T08:49:01;5.28;118.99
16505;HTU21D;8365;51.030;4.696;2022-12-07T08:51:32;5.38;118.99
16505;HTU21D;8365;51.030;4.696;2022-12-07T08:54:06;5.28;118.99
16505;HTU21D;8365;51.030;4.696;2022-12-07T08:56:38;5.07;118.99
16505;HTU21D;8365;51.030;4.696;2022-12-07T08:59:12;5.18;118.99
16505;HTU21D;8365;51.030;4.696;2022-12-07T09:01:44;5.27;118.99
16505;HTU21D;8365;51.030;4.696;2022-12-07T09:04:14;5.37;118.99
16505;HTU21D;8365;51.030;4.696;2022-12-07T09:06:46;5.32;118.99
16505;HTU21D;8365;51.030;4.696;2022-12-07T09:09:17;5.42;118.99
16505;HTU21D;8365;51.030;4.696;2022-12-07T09:11:47;5.69;118.99
16505;HTU21D;8365;51.030;4.696;2022-12-07T09:14:20;5.77;118.99
16505;HTU21D;8365;51.030;4.696;2022-12-07T09:16:53;5.77;118.99
16505;HTU21D;8365;51.030;4.696;2022-12-07T09:19:24;5.87;118.99
16505;HTU21D;8365;51.030;4.696;2022-12-07T09:21:54;5.78;118.99
16505;HTU21D;8365;51.030;4.696;2022-12-07T09:24:24;5.78;118.99
16505;HTU21D;8365;51.030;4.696;2022-12-07T09:26:55;5.90;118.99
16505;HTU21D;8365;51.030;4.696;2022-12-07T09:29:25;5.95;118.99
16505;HTU21D;8365;51.030;4.696;2022-12-07T09:31:56;6.01;118.99
16505;HTU21D;8365;51.030;4.696;2022-12-07T09:34:26;6.20;118.99
16505;HTU21D;8365;51.030;4.696;2022-12-07T09:36:57;6.29;118.99
16505;HTU21D;8365;51.030;4.696;2022-12-07T09:39:27;6.20;118.99
16505;HTU21D;8365;51.030;4.696;2022-12-07T09:41:59;6.19;118.99
16505;HTU21D;8365;51.030;4.696;2022-12-07T09:44:32;6.17;118.99
16505;HTU21D;8365;51.030;4.696;2022-12-07T09:47:03;6.21;118.99
16505;HTU21D;8365;51.030;4.696;2022-12-07T09:49:34;6.04;118.99
16505;HTU21D;8365;51.030;4.696;2022-12-07T09:54:40;6.22;118.99
16505;HTU21D;8365;51.030;4.696;2022-12-07T09:57:12;6.73;118.99
16505;HTU21D;8365;51.030;4.696;2022-12-07T09:59:42;7.28;118.99
16505;HTU21D;8365;51.030;4.696;2022-12-07T10:02:36;7.35;118.99
16505;HTU21D;8365;51.030;4.696;2022-12-07T10:05:16;7.46;118.99
16505;HTU21D;8365;51.030;4.696;2022-12-07T10:07:46;7.05;118.99
16505;HTU21D;8365;51.030;4.696;2022-12-07T10:10:28;6.82;118.99
16505;HTU21D;8365;51.030;4.696;2022-12-07T10:13:07;6.71;118.99
16505;HTU21D;8365;51.030;4.696;2022-12-07T10:15:55;6.65;118.99
16505;HTU21D;8365;51.030;4.696;2022-12-07T10:18:30;6.81;118.99
16505;HTU21D;8365;51.030;4.696;2022-12-07T10:21:11;6.76;118.99
16505;HTU21D;8365;51.030;4.696;2022-12-07T10:24:05;6.85;118.99
16505;HTU21D;8365;51.030;4.696;2022-12-07T10:26:52;6.69;118.99
16505;HTU21D;8365;51.030;4.696;2022-12-07T10:29:31;6.91;118.99
16505;HTU21D;8365;51.030;4.696;2022-12-07T10:32:05;7.13;118.99
16505;HTU21D;8365;51.030;4.696;2022-12-07T10:34:37;7.24;118.99
16505;HTU21D;8365;51.030;4.696;2022-12-07T10:37:17;7.39;118.99
16505;HTU21D;8365;51.030;4.696;2022-12-07T10:39:57;7.62;118.99
16505;HTU21D;8365;51.030;4.696;2022-12-07T10:42:31;7.61;118.99
16505;HTU21D;8365;51.030;4.696;2022-12-07T10:45:17;7.75;118.99
16505;HTU21D;8365;51.030;4.696;2022-12-07T10:48:08;8.01;118.99
16505;HTU21D;8365;51.030;4.696;2022-12-07T10:51:06;8.12;118.99
16505;HTU21D;8365;51.030;4.696;2022-12-07T10:56:36;7.88;118.99
16505;HTU21D;8365;51.030;4.696;2022-12-07T11:10:54;8.35;118.99
16505;HTU21D;8365;51.030;4.696;2022-12-07T11:13:51;8.44;118.99
16505;HTU21D;8365;51.030;4.696;2022-12-07T11:27:42;8.80;117.86
16505;HTU21D;8365;51.030;4.696;2022-12-07T11:30:18;8.64;118.99
16505;HTU21D;8365;51.030;4.696;2022-12-07T11:38:55;8.85;118.99
16505;HTU21D;8365;51.030;4.696;2022-12-07T11:41:33;8.72;118.99
16505;HTU21D;8365;51.030;4.696;2022-12-07T11:52:53;9.02;118.99
16505;HTU21D;8365;51.030;4.696;2022-12-07T11:58:38;9.23;118.99
16505;HTU21D;8365;51.030;4.696;2022-12-07T12:04:07;9.06;118.99
16505;HTU21D;8365;51.030;4.696;2022-12-07T12:06:45;9.67;118.99
16505;HTU21D;8365;51.030;4.696;2022-12-07T12:09:32;10.00;118.66
16505;HTU21D;8365;51.030;4.696;2022-12-07T12:12:35;10.49;116.23
16505;HTU21D;8365;51.030;4.696;2022-12-07T12:18:43;11.99;101.61
16505;HTU21D;8365;51.030;4.696;2022-12-07T12:21:18;11.72;102.15
16505;HTU21D;8365;51.030;4.696;2022-12-07T12:24:21;11.52;101.86
16505;HTU21D;8365;51.030;4.696;2022-12-07T12:27:21;11.49;102.88
16505;HTU21D;8365;51.030;4.696;2022-12-07T12:29:54;10.95;106.08
16505;HTU21D;8365;51.030;4.696;2022-12-07T12:32:40;10.85;108.67
16505;HTU21D;8365;51.030;4.696;2022-12-07T12:41:54;9.92;109.65
16505;HTU21D;8365;51.030;4.696;2022-12-07T12:47:38;8.94;118.36
16505;HTU21D;8365;51.030;4.696;2022-12-07T12:50:16;8.73;118.99
16505;HTU21D;8365;51.030;4.696;2022-12-07T12:52:56;8.68;118.99
16505;HTU21D;8365;51.030;4.696;2022-12-07T13:03:57;8.56;118.99
16505;HTU21D;8365;51.030;4.696;2022-12-07T13:08:59;8.56;118.99
16505;HTU21D;8365;51.030;4.696;2022-12-07T13:11:41;8.79;118.99
16505;HTU21D;8365;51.030;4.696;2022-12-07T13:14:53;8.65;118.99
16505;HTU21D;8365;51.030;4.696;2022-12-07T13:20:05;8.15;118.99
16505;HTU21D;8365;51.030;4.696;2022-12-07T13:22:40;7.81;118.99
16505;HTU21D;8365;51.030;4.696;2022-12-07T13:25:19;7.90;118.99
16505;HTU21D;8365;51.030;4.696;2022-12-07T13:28:14;7.93;118.99
16505;HTU21D;8365;51.030;4.696;2022-12-07T13:31:02;7.89;118.99
16505;HTU21D;8365;51.030;4.696;2022-12-07T13:33:34;7.91;118.99
16505;HTU21D;8365;51.030;4.696;2022-12-07T13:36:17;8.18;118.99
16505;HTU21D;8365;51.030;4.696;2022-12-07T13:38:51;8.32;118.99
16505;HTU21D;8365;51.030;4.696;2022-12-07T13:41:25;8.13;118.99
16505;HTU21D;8365;51.030;4.696;2022-12-07T13:49:36;8.20;118.99
16505;HTU21D;8365;51.030;4.696;2022-12-07T13:52:18;8.18;118.99
16505;HTU21D;8365;51.030;4.696;2022-12-07T13:55:01;8.46;118.99
16505;HTU21D;8365;51.030;4.696;2022-12-07T13:57:35;8.57;118.99
16505;HTU21D;8365;51.030;4.696;2022-12-07T14:00:20;8.34;118.99
16505;HTU21D;8365;51.030;4.696;2022-12-07T14:03:04;8.29;118.99
16505;HTU21D;8365;51.030;4.696;2022-12-07T14:06:14;8.35;118.99
16505;HTU21D;8365;51.030;4.696;2022-12-07T14:08:48;8.08;118.99
16505;HTU21D;8365;51.030;4.696;2022-12-07T14:11:19;7.74;118.99
16505;HTU21D;8365;51.030;4.696;2022-12-07T14:13:59;7.79;118.99
16505;HTU21D;8365;51.030;4.696;2022-12-07T14:16:36;7.63;118.99
16505;HTU21D;8365;51.030;4.696;2022-12-07T14:22:36;7.92;118.99
16505;HTU21D;8365;51.030;4.696;2022-12-07T14:28:00;8.00;118.99
16505;HTU21D;8365;51.030;4.696;2022-12-07T14:30:32;7.89;118.99
16505;HTU21D;8365;51.030;4.696;2022-12-07T14:33:04;8.03;118.99
16505;HTU21D;8365;51.030;4.696;2022-12-07T14:35:37;8.21;118.99
16505;HTU21D;8365;51.030;4.696;2022-12-07T14:38:08;8.08;118.99
16505;HTU21D;8365;51.030;4.696;2022-12-07T14:40:39;7.91;118.99
16505;HTU21D;8365;51.030;4.696;2022-12-07T14:43:12;7.94;118.99
16505;HTU21D;8365;51.030;4.696;2022-12-07T14:45:44;7.83;118.99
16505;HTU21D;8365;51.030;4.696;2022-12-07T14:48:15;7.72;118.99
16505;HTU21D;8365;51.030;4.696;2022-12-07T14:50:50;7.77;118.99
16505;HTU21D;8365;51.030;4.696;2022-12-07T14:53:27;7.79;118.99
16505;HTU21D;8365;51.030;4.696;2022-12-07T14:55:59;7.67;118.99
16505;HTU21D;8365;51.030;4.696;2022-12-07T14:58:30;7.53;118.99
16505;HTU21D;8365;51.030;4.696;2022-12-07T15:01:03;7.48;118.99
16505;HTU21D;8365;51.030;4.696;2022-12-07T15:03:33;7.64;118.99
16505;HTU21D;8365;51.030;4.696;2022-12-07T15:06:13;7.57;118.99
16505;HTU21D;8365;51.030;4.696;2022-12-07T15:08:44;7.53;118.99
16505;HTU21D;8365;51.030;4.696;2022-12-07T15:11:17;7.45;118.99
16505;HTU21D;8365;51.030;4.696;2022-12-07T15:13:48;7.42;118.99
16505;HTU21D;8365;51.030;4.696;2022-12-07T15:16:38;7.23;118.99
16505;HTU21D;8365;51.030;4.696;2022-12-07T15:19:15;7.14;118.99
16505;HTU21D;8365;51.030;4.696;2022-12-07T15:21:45;7.00;118.99
16505;HTU21D;8365;51.030;4.696;2022-12-07T15:24:16;6.88;118.99
16505;HTU21D;8365;51.030;4.696;2022-12-07T15:26:46;6.84;118.99
16505;HTU21D;8365;51.030;4.696;2022-12-07T15:29:17;6.72;118.99
16505;HTU21D;8365;51.030;4.696;2022-12-07T15:31:49;6.53;118.99
16505;HTU21D;8365;51.030;4.696;2022-12-07T15:34:19;6.64;118.99
16505;HTU21D;8365;51.030;4.696;2022-12-07T15:36:50;6.78;118.99
16505;HTU21D;8365;51.030;4.696;2022-12-07T15:39:22;6.71;118.99
16505;HTU21D;8365;51.030;4.696;2022-12-07T15:41:53;6.63;118.99
16505;HTU21D;8365;51.030;4.696;2022-12-07T15:44:23;6.68;118.99
16505;HTU21D;8365;51.030;4.696;2022-12-07T15:47:12;6.67;118.99
16505;HTU21D;8365;51.030;4.696;2022-12-07T15:49:42;6.76;118.99
16505;HTU21D;8365;51.030;4.696;2022-12-07T15:52:13;6.78;118.99
16505;HTU21D;8365;51.030;4.696;2022-12-07T15:54:43;6.68;118.99
16505;HTU21D;8365;51.030;4.696;2022-12-07T15:57:14;6.74;118.99
16505;HTU21D;8365;51.030;4.696;2022-12-07T15:59:45;6.63;118.99
16505;HTU21D;8365;51.030;4.696;2022-12-07T16:02:15;6.69;118.99
16505;HTU21D;8365;51.030;4.696;2022-12-07T16:04:45;6.70;118.99
16505;HTU21D;8365;51.030;4.696;2022-12-07T16:07:17;6.85;118.99
16505;HTU21D;8365;51.030;4.696;2022-12-07T16:09:49;6.71;118.99
16505;HTU21D;8365;51.030;4.696;2022-12-07T16:12:22;6.56;118.99
16505;HTU21D;8365;51.030;4.696;2022-12-07T16:14:55;6.67;118.99
16505;HTU21D;8365;51.030;4.696;2022-12-07T16:17:25;6.79;118.99
16505;HTU21D;8365;51.030;4.696;2022-12-07T16:19:58;6.78;118.99
16505;HTU21D;8365;51.030;4.696;2022-12-07T16:22:29;6.75;118.99
16505;HTU21D;8365;51.030;4.696;2022-12-07T16:24:59;6.64;118.99
16505;HTU21D;8365;51.030;4.696;2022-12-07T16:27:30;6.64;118.99
16505;HTU21D;8365;51.030;4.696;2022-12-07T16:30:00;6.66;118.99
16505;HTU21D;8365;51.030;4.696;2022-12-07T16:32:31;6.78;118.99
16505;HTU21D;8365;51.030;4.696;2022-12-07T16:35:01;6.81;118.99
16505;HTU21D;8365;51.030;4.696;2022-12-07T16:37:32;6.70;118.99
16505;HTU21D;8365;51.030;4.696;2022-12-07T16:40:03;6.58;118.99
16505;HTU21D;8365;51.030;4.696;2022-12-07T16:42:34;6.57;118.99
16505;HTU21D;8365;51.030;4.696;2022-12-07T16:45:05;6.70;118.99
16505;HTU21D;8365;51.030;4.696;2022-12-07T16:47:39;6.75;118.99
16505;HTU21D;8365;51.030;4.696;2022-12-07T16:50:09;6.93;118.99
16505;HTU21D;8365;51.030;4.696;2022-12-07T16:52:40;6.89;118.99
16505;HTU21D;8365;51.030;4.696;2022-12-07T16:55:10;6.91;118.99
16505;HTU21D;8365;51.030;4.696;2022-12-07T16:57:41;6.81;118.99
16505;HTU21D;8365;51.030;4.696;2022-12-07T17:00:12;6.81;118.99
16505;HTU21D;8365;51.030;4.696;2022-12-07T17:02:42;6.88;118.99
16505;HTU21D;8365;51.030;4.696;2022-12-07T17:05:13;6.95;118.99
16505;HTU21D;8365;51.030;4.696;2022-12-07T17:07:43;7.11;118.99
16505;HTU21D;8365;51.030;4.696;2022-12-07T17:10:13;7.04;118.99
16505;HTU21D;8365;51.030;4.696;2022-12-07T17:12:44;7.08;118.99
16505;HTU21D;8365;51.030;4.696;2022-12-07T17:15:15;6.91;118.99
16505;HTU21D;8365;51.030;4.696;2022-12-07T17:17:55;6.81;118.99
16505;HTU21D;8365;51.030;4.696;2022-12-07T17:20:27;6.78;118.99
16505;HTU21D;8365;51.030;4.696;2022-12-07T17:22:57;6.85;118.99
16505;HTU21D;8365;51.030;4.696;2022-12-07T17:25:27;6.91;118.99
16505;HTU21D;8365;51.030;4.696;2022-12-07T17:27:58;7.08;118.99
16505;HTU21D;8365;51.030;4.696;2022-12-07T17:30:29;6.83;118.99
16505;HTU21D;8365;51.030;4.696;2022-12-07T17:32:59;6.84;118.99
16505;HTU21D;8365;51.030;4.696;2022-12-07T17:35:29;6.78;118.99
16505;HTU21D;8365;51.030;4.696;2022-12-07T17:38:00;6.70;118.99
16505;HTU21D;8365;51.030;4.696;2022-12-07T17:40:30;6.71;118.99
16505;HTU21D;8365;51.030;4.696;2022-12-07T17:43:01;6.73;118.99
16505;HTU21D;8365;51.030;4.696;2022-12-07T17:45:31;6.67;118.99
16505;HTU21D;8365;51.030;4.696;2022-12-07T17:48:04;6.79;118.99
16505;HTU21D;8365;51.030;4.696;2022-12-07T17:50:34;6.65;118.99
16505;HTU21D;8365;51.030;4.696;2022-12-07T17:53:24;6.46;118.99
16505;HTU21D;8365;51.030;4.696;2022-12-07T17:55:55;6.37;118.99
16505;HTU21D;8365;51.030;4.696;2022-12-07T17:58:25;6.48;118.99
16505;HTU21D;8365;51.030;4.696;2022-12-07T18:00:55;6.44;118.99
16505;HTU21D;8365;51.030;4.696;2022-12-07T18:03:26;6.59;118.99
16505;HTU21D;8365;51.030;4.696;2022-12-07T18:05:59;6.46;118.99
16505;HTU21D;8365;51.030;4.696;2022-12-07T18:08:34;6.44;118.99
16505;HTU21D;8365;51.030;4.696;2022-12-07T18:11:05;6.41;118.99
16505;HTU21D;8365;51.030;4.696;2022-12-07T18:13:36;6.42;118.99
16505;HTU21D;8365;51.030;4.696;2022-12-07T18:16:10;6.22;118.99